sensor_id;sensor_type;location;lat;lon;timestamp;temperature;humidity
63260;DHT22;49390;51.380;0.098;2023-03-01T00:01:48;5.20;99.90
63260;DHT22;49390;51.380;0.098;2023-03-01T00:04:16;5.10;99.90
63260;DHT22;49390;51.380;0.098;2023-03-01T00:06:44;5.10;99.90
63260;DHT22;49390;51.380;0.098;2023-03-01T00:09:15;5.10;99.90
63260;DHT22;49390;51.380;0.098;2023-03-01T00:11:45;5.10;99.90
63260;DHT22;49390;51.380;0.098;2023-03-01T00:14:13;5.10;99.90
63260;DHT22;49390;51.380;0.098;2023-03-01T00:16:44;5.10;99.90
63260;DHT22;49390;51.380;0.098;2023-03-01T00:19:17;5.10;99.90
63260;DHT22;49390;51.380;0.098;2023-03-01T00:21:46;5.20;99.90
63260;DHT22;49390;51.380;0.098;2023-03-01T00:24:14;5.20;99.90
63260;DHT22;49390;51.380;0.098;2023-03-01T00:26:42;5.20;99.90
63260;DHT22;49390;51.380;0.098;2023-03-01T00:29:10;5.20;99.90
63260;DHT22;49390;51.380;0.098;2023-03-01T00:31:38;5.20;99.90
63260;DHT22;49390;51.380;0.098;2023-03-01T00:34:06;5.20;99.90
63260;DHT22;49390;51.380;0.098;2023-03-01T00:36:36;5.20;99.90
63260;DHT22;49390;51.380;0.098;2023-03-01T00:39:07;5.20;99.90
63260;DHT22;49390;51.380;0.098;2023-03-01T00:41:37;5.10;99.90
63260;DHT22;49390;51.380;0.098;2023-03-01T00:44:05;5.10;99.90
63260;DHT22;49390;51.380;0.098;2023-03-01T00:46:35;5.10;99.90
63260;DHT22;49390;51.380;0.098;2023-03-01T00:49:04;5.10;99.90
63260;DHT22;49390;51.380;0.098;2023-03-01T00:51:33;5.00;99.90
63260;DHT22;49390;51.380;0.098;2023-03-01T00:54:02;5.00;99.90
63260;DHT22;49390;51.380;0.098;2023-03-01T00:56:31;5.00;99.90
63260;DHT22;49390;51.380;0.098;2023-03-01T00:59:00;5.00;99.90
63260;DHT22;49390;51.380;0.098;2023-03-01T01:01:30;5.10;99.90
63260;DHT22;49390;51.380;0.098;2023-03-01T01:04:03;5.10;99.90
63260;DHT22;49390;51.380;0.098;2023-03-01T01:06:40;5.10;99.90
63260;DHT22;49390;51.380;0.098;2023-03-01T01:09:15;5.10;99.90
63260;DHT22;49390;51.380;0.098;2023-03-01T01:11:49;5.10;99.90
63260;DHT22;49390;51.380;0.098;2023-03-01T01:14:19;5.10;99.90
63260;DHT22;49390;51.380;0.098;2023-03-01T01:16:47;5.00;99.90
63260;DHT22;49390;51.380;0.098;2023-03-01T01:19:15;5.00;99.90
63260;DHT22;49390;51.380;0.098;2023-03-01T01:21:43;5.00;99.90
63260;DHT22;49390;51.380;0.098;2023-03-01T01:24:12;5.00;99.90
63260;DHT22;49390;51.380;0.098;2023-03-01T01:26:42;5.10;99.90
63260;DHT22;49390;51.380;0.098;2023-03-01T01:29:10;5.10;99.90
63260;DHT22;49390;51.380;0.098;2023-03-01T01:31:40;5.10;99.90
63260;DHT22;49390;51.380;0.098;2023-03-01T01:34:16;5.10;99.90
63260;DHT22;49390;51.380;0.098;2023-03-01T01:36:48;5.10;99.90
63260;DHT22;49390;51.380;0.098;2023-03-01T01:39:17;5.10;99.90
63260;DHT22;49390;51.380;0.098;2023-03-01T01:41:46;5.20;99.90
63260;DHT22;49390;51.380;0.098;2023-03-01T01:44:25;5.20;99.90
63260;DHT22;49390;51.380;0.098;2023-03-01T01:46:57;5.20;99.90
63260;DHT22;49390;51.380;0.098;2023-03-01T01:49:37;5.20;99.90
63260;DHT22;49390;51.380;0.098;2023-03-01T01:54:53;5.20;99.90
63260;DHT22;49390;51.380;0.098;2023-03-01T01:57:34;5.30;99.90
63260;DHT22;49390;51.380;0.098;2023-03-01T02:00:13;5.30;99.90
63260;DHT22;49390;51.380;0.098;2023-03-01T02:02:44;5.20;99.90
63260;DHT22;49390;51.380;0.098;2023-03-01T02:08:05;5.20;99.90
63260;DHT22;49390;51.380;0.098;2023-03-01T02:10:34;5.30;99.90
63260;DHT22;49390;51.380;0.098;2023-03-01T02:13:03;5.20;99.90
63260;DHT22;49390;51.380;0.098;2023-03-01T02:15:33;5.20;99.90
63260;DHT22;49390;51.380;0.098;2023-03-01T02:18:03;5.20;99.90
63260;DHT22;49390;51.380;0.098;2023-03-01T02:23:29;5.20;99.90
63260;DHT22;49390;51.380;0.098;2023-03-01T02:26:08;5.20;99.90
63260;DHT22;49390;51.380;0.098;2023-03-01T02:28:40;5.30;99.90
63260;DHT22;49390;51.380;0.098;2023-03-01T02:31:16;5.30;99.90
63260;DHT22;49390;51.380;0.098;2023-03-01T02:34:03;5.30;99.90
63260;DHT22;49390;51.380;0.098;2023-03-01T02:37:22;5.30;99.90
63260;DHT22;49390;51.380;0.098;2023-03-01T02:39:25;5.30;99.90
63260;DHT22;49390;51.380;0.098;2023-03-01T02:41:56;5.30;99.90
63260;DHT22;49390;51.380;0.098;2023-03-01T02:44:24;5.40;99.90
63260;DHT22;49390;51.380;0.098;2023-03-01T02:46:56;5.30;99.90
63260;DHT22;49390;51.380;0.098;2023-03-01T02:49:28;5.30;99.90
63260;DHT22;49390;51.380;0.098;2023-03-01T02:55:03;5.40;99.90
63260;DHT22;49390;51.380;0.098;2023-03-01T02:57:35;5.40;99.90
63260;DHT22;49390;51.380;0.098;2023-03-01T03:00:24;5.40;99.90
63260;DHT22;49390;51.380;0.098;2023-03-01T03:02:55;5.40;99.90
63260;DHT22;49390;51.380;0.098;2023-03-01T03:05:29;5.40;99.90
63260;DHT22;49390;51.380;0.098;2023-03-01T03:08:00;5.40;99.90
63260;DHT22;49390;51.380;0.098;2023-03-01T03:10:34;5.40;99.90
63260;DHT22;49390;51.380;0.098;2023-03-01T03:13:06;5.40;99.90
63260;DHT22;49390;51.380;0.098;2023-03-01T03:15:35;5.40;99.90
63260;DHT22;49390;51.380;0.098;2023-03-01T03:18:06;5.40;99.90
63260;DHT22;49390;51.380;0.098;2023-03-01T03:20:34;5.40;99.90
63260;DHT22;49390;51.380;0.098;2023-03-01T03:23:03;5.40;99.90
63260;DHT22;49390;51.380;0.098;2023-03-01T03:25:31;5.40;99.90
63260;DHT22;49390;51.380;0.098;2023-03-01T03:27:59;5.40;99.90
63260;DHT22;49390;51.380;0.098;2023-03-01T03:30:30;5.40;99.90
63260;DHT22;49390;51.380;0.098;2023-03-01T03:32:59;5.40;99.90
63260;DHT22;49390;51.380;0.098;2023-03-01T03:35:28;5.40;99.90
63260;DHT22;49390;51.380;0.098;2023-03-01T03:38:05;5.40;99.90
63260;DHT22;49390;51.380;0.098;2023-03-01T03:41:04;5.40;99.90
63260;DHT22;49390;51.380;0.098;2023-03-01T03:43:34;5.40;99.90
63260;DHT22;49390;51.380;0.098;2023-03-01T03:46:04;5.50;99.90
63260;DHT22;49390;51.380;0.098;2023-03-01T03:48:38;5.50;99.90
63260;DHT22;49390;51.380;0.098;2023-03-01T03:51:10;5.40;99.90
63260;DHT22;49390;51.380;0.098;2023-03-01T03:53:38;5.50;99.90
63260;DHT22;49390;51.380;0.098;2023-03-01T03:56:06;5.40;99.90
63260;DHT22;49390;51.380;0.098;2023-03-01T03:58:35;5.40;99.90
63260;DHT22;49390;51.380;0.098;2023-03-01T04:01:03;5.40;99.90
63260;DHT22;49390;51.380;0.098;2023-03-01T04:03:32;5.40;99.90
63260;DHT22;49390;51.380;0.098;2023-03-01T04:06:02;5.40;99.90
63260;DHT22;49390;51.380;0.098;2023-03-01T04:08:32;5.40;99.90
63260;DHT22;49390;51.380;0.098;2023-03-01T04:11:02;5.40;99.90
63260;DHT22;49390;51.380;0.098;2023-03-01T04:13:49;5.40;99.90
63260;DHT22;49390;51.380;0.098;2023-03-01T04:16:18;5.40;99.90
63260;DHT22;49390;51.380;0.098;2023-03-01T04:18:46;5.40;99.90
63260;DHT22;49390;51.380;0.098;2023-03-01T04:21:15;5.40;99.90
63260;DHT22;49390;51.380;0.098;2023-03-01T04:23:43;5.40;99.90
63260;DHT22;49390;51.380;0.098;2023-03-01T04:26:11;5.50;99.90
63260;DHT22;49390;51.380;0.098;2023-03-01T04:28:41;5.40;99.90
63260;DHT22;49390;51.380;0.098;2023-03-01T04:31:17;5.40;99.90
63260;DHT22;49390;51.380;0.098;2023-03-01T04:33:54;5.50;99.90
63260;DHT22;49390;51.380;0.098;2023-03-01T04:36:26;5.50;99.90
63260;DHT22;49390;51.380;0.098;2023-03-01T04:38:55;5.50;99.90
63260;DHT22;49390;51.380;0.098;2023-03-01T04:41:24;5.50;99.90
63260;DHT22;49390;51.380;0.098;2023-03-01T04:43:52;5.40;99.90
63260;DHT22;49390;51.380;0.098;2023-03-01T04:46:21;5.40;99.90
63260;DHT22;49390;51.380;0.098;2023-03-01T04:48:49;5.40;99.90
63260;DHT22;49390;51.380;0.098;2023-03-01T04:51:17;5.40;99.90
63260;DHT22;49390;51.380;0.098;2023-03-01T04:53:46;5.40;99.90
63260;DHT22;49390;51.380;0.098;2023-03-01T04:56:15;5.30;99.90
63260;DHT22;49390;51.380;0.098;2023-03-01T04:58:44;5.30;99.90
63260;DHT22;49390;51.380;0.098;2023-03-01T05:01:14;5.30;99.90
63260;DHT22;49390;51.380;0.098;2023-03-01T05:03:45;5.40;99.90
63260;DHT22;49390;51.380;0.098;2023-03-01T05:06:14;5.40;99.90
63260;DHT22;49390;51.380;0.098;2023-03-01T05:08:44;5.40;99.90
63260;DHT22;49390;51.380;0.098;2023-03-01T05:11:12;5.40;99.90
63260;DHT22;49390;51.380;0.098;2023-03-01T05:13:40;5.30;99.90
63260;DHT22;49390;51.380;0.098;2023-03-01T05:16:09;5.30;99.90
63260;DHT22;49390;51.380;0.098;2023-03-01T05:18:40;5.30;99.90
63260;DHT22;49390;51.380;0.098;2023-03-01T05:21:12;5.30;99.90
63260;DHT22;49390;51.380;0.098;2023-03-01T05:23:40;5.30;99.90
63260;DHT22;49390;51.380;0.098;2023-03-01T05:26:25;5.60;99.90
63260;DHT22;49390;51.380;0.098;2023-03-01T05:28:56;5.30;99.90
63260;DHT22;49390;51.380;0.098;2023-03-01T05:31:27;5.30;99.90
63260;DHT22;49390;51.380;0.098;2023-03-01T05:33:55;5.30;99.90
63260;DHT22;49390;51.380;0.098;2023-03-01T05:36:23;5.30;99.90
63260;DHT22;49390;51.380;0.098;2023-03-01T05:38:51;5.40;99.90
63260;DHT22;49390;51.380;0.098;2023-03-01T05:41:19;5.30;99.90
63260;DHT22;49390;51.380;0.098;2023-03-01T05:43:47;5.30;99.90
63260;DHT22;49390;51.380;0.098;2023-03-01T05:46:15;5.30;99.90
63260;DHT22;49390;51.380;0.098;2023-03-01T05:48:43;5.30;99.90
63260;DHT22;49390;51.380;0.098;2023-03-01T05:51:11;5.30;99.90
63260;DHT22;49390;51.380;0.098;2023-03-01T05:53:40;5.30;99.90
63260;DHT22;49390;51.380;0.098;2023-03-01T05:56:09;5.30;99.90
63260;DHT22;49390;51.380;0.098;2023-03-01T05:58:37;5.30;99.90
63260;DHT22;49390;51.380;0.098;2023-03-01T06:01:11;5.30;99.90
63260;DHT22;49390;51.380;0.098;2023-03-01T06:03:39;5.30;99.90
63260;DHT22;49390;51.380;0.098;2023-03-01T06:06:07;5.30;99.90
63260;DHT22;49390;51.380;0.098;2023-03-01T06:08:35;5.20;99.90
63260;DHT22;49390;51.380;0.098;2023-03-01T06:11:03;5.20;99.90
63260;DHT22;49390;51.380;0.098;2023-03-01T06:13:31;5.20;99.90
63260;DHT22;49390;51.380;0.098;2023-03-01T06:15:59;5.20;99.90
63260;DHT22;49390;51.380;0.098;2023-03-01T06:18:27;5.20;99.90
63260;DHT22;49390;51.380;0.098;2023-03-01T06:20:55;5.20;99.90
63260;DHT22;49390;51.380;0.098;2023-03-01T06:23:24;5.20;99.90
63260;DHT22;49390;51.380;0.098;2023-03-01T06:25:52;5.20;99.90
63260;DHT22;49390;51.380;0.098;2023-03-01T06:28:20;5.20;99.90
63260;DHT22;49390;51.380;0.098;2023-03-01T06:30:50;5.20;99.90
63260;DHT22;49390;51.380;0.098;2023-03-01T06:33:19;5.20;99.90
63260;DHT22;49390;51.380;0.098;2023-03-01T06:35:54;5.20;99.90
63260;DHT22;49390;51.380;0.098;2023-03-01T06:38:24;5.20;99.90
63260;DHT22;49390;51.380;0.098;2023-03-01T06:40:53;5.20;99.90
63260;DHT22;49390;51.380;0.098;2023-03-01T06:43:23;5.20;99.90
63260;DHT22;49390;51.380;0.098;2023-03-01T06:45:51;5.20;99.90
63260;DHT22;49390;51.380;0.098;2023-03-01T06:48:21;5.20;99.90
63260;DHT22;49390;51.380;0.098;2023-03-01T06:50:49;5.20;99.90
63260;DHT22;49390;51.380;0.098;2023-03-01T06:53:17;5.20;99.90
63260;DHT22;49390;51.380;0.098;2023-03-01T06:55:45;5.20;99.90
63260;DHT22;49390;51.380;0.098;2023-03-01T06:58:13;5.20;99.90
63260;DHT22;49390;51.380;0.098;2023-03-01T07:00:41;5.20;99.90
63260;DHT22;49390;51.380;0.098;2023-03-01T07:03:10;5.30;99.90
63260;DHT22;49390;51.380;0.098;2023-03-01T07:05:38;5.30;99.90
63260;DHT22;49390;51.380;0.098;2023-03-01T07:08:06;5.20;99.90
63260;DHT22;49390;51.380;0.098;2023-03-01T07:10:34;5.20;99.90
63260;DHT22;49390;51.380;0.098;2023-03-01T07:13:03;5.20;99.90
63260;DHT22;49390;51.380;0.098;2023-03-01T07:15:30;5.30;99.90
63260;DHT22;49390;51.380;0.098;2023-03-01T07:18:00;5.30;99.90
63260;DHT22;49390;51.380;0.098;2023-03-01T07:20:28;5.30;99.90
63260;DHT22;49390;51.380;0.098;2023-03-01T07:22:56;5.30;99.90
63260;DHT22;49390;51.380;0.098;2023-03-01T07:25:26;5.30;99.90
63260;DHT22;49390;51.380;0.098;2023-03-01T07:27:54;5.30;99.90
63260;DHT22;49390;51.380;0.098;2023-03-01T07:30:23;5.30;99.90
63260;DHT22;49390;51.380;0.098;2023-03-01T07:32:57;5.30;99.90
63260;DHT22;49390;51.380;0.098;2023-03-01T07:35:26;5.30;99.90
63260;DHT22;49390;51.380;0.098;2023-03-01T07:37:54;5.40;99.90
63260;DHT22;49390;51.380;0.098;2023-03-01T07:40:22;5.40;99.90
63260;DHT22;49390;51.380;0.098;2023-03-01T07:42:55;5.40;99.90
63260;DHT22;49390;51.380;0.098;2023-03-01T07:45:25;5.40;99.90
63260;DHT22;49390;51.380;0.098;2023-03-01T07:47:53;5.40;99.90
63260;DHT22;49390;51.380;0.098;2023-03-01T07:50:22;5.40;99.90
63260;DHT22;49390;51.380;0.098;2023-03-01T07:52:50;5.50;99.90
63260;DHT22;49390;51.380;0.098;2023-03-01T07:55:18;5.50;99.90
63260;DHT22;49390;51.380;0.098;2023-03-01T07:57:46;5.50;99.90
63260;DHT22;49390;51.380;0.098;2023-03-01T08:00:15;5.50;99.90
63260;DHT22;49390;51.380;0.098;2023-03-01T08:02:42;5.60;99.90
63260;DHT22;49390;51.380;0.098;2023-03-01T08:05:11;5.60;99.90
63260;DHT22;49390;51.380;0.098;2023-03-01T08:07:38;5.60;99.90
63260;DHT22;49390;51.380;0.098;2023-03-01T08:10:07;5.70;99.90
63260;DHT22;49390;51.380;0.098;2023-03-01T08:12:35;5.70;99.90
63260;DHT22;49390;51.380;0.098;2023-03-01T08:15:03;5.70;99.90
63260;DHT22;49390;51.380;0.098;2023-03-01T08:17:31;5.70;99.90
63260;DHT22;49390;51.380;0.098;2023-03-01T08:19:59;5.80;99.90
63260;DHT22;49390;51.380;0.098;2023-03-01T08:22:30;5.80;99.90
63260;DHT22;49390;51.380;0.098;2023-03-01T08:24:58;5.90;99.90
63260;DHT22;49390;51.380;0.098;2023-03-01T08:27:26;6.00;99.90
63260;DHT22;49390;51.380;0.098;2023-03-01T08:29:54;6.00;99.90
63260;DHT22;49390;51.380;0.098;2023-03-01T08:32:21;6.10;99.90
63260;DHT22;49390;51.380;0.098;2023-03-01T08:34:50;6.10;99.90
63260;DHT22;49390;51.380;0.098;2023-03-01T08:37:18;6.10;99.90
63260;DHT22;49390;51.380;0.098;2023-03-01T08:39:46;6.10;99.90
63260;DHT22;49390;51.380;0.098;2023-03-01T08:42:14;6.10;99.90
63260;DHT22;49390;51.380;0.098;2023-03-01T08:44:42;6.10;99.90
63260;DHT22;49390;51.380;0.098;2023-03-01T08:47:12;6.10;99.90
63260;DHT22;49390;51.380;0.098;2023-03-01T08:49:40;6.10;99.90
63260;DHT22;49390;51.380;0.098;2023-03-01T08:52:08;6.10;99.90
63260;DHT22;49390;51.380;0.098;2023-03-01T08:54:36;6.10;99.90
63260;DHT22;49390;51.380;0.098;2023-03-01T08:57:04;6.10;99.90
63260;DHT22;49390;51.380;0.098;2023-03-01T08:59:32;6.10;99.90
63260;DHT22;49390;51.380;0.098;2023-03-01T09:02:08;6.20;99.90
63260;DHT22;49390;51.380;0.098;2023-03-01T09:04:39;6.20;99.90
63260;DHT22;49390;51.380;0.098;2023-03-01T09:07:08;6.10;99.90
63260;DHT22;49390;51.380;0.098;2023-03-01T09:09:36;6.20;99.90
63260;DHT22;49390;51.380;0.098;2023-03-01T09:12:04;6.20;99.90
63260;DHT22;49390;51.380;0.098;2023-03-01T09:14:33;6.20;99.90
63260;DHT22;49390;51.380;0.098;2023-03-01T09:17:01;6.20;99.90
63260;DHT22;49390;51.380;0.098;2023-03-01T09:19:30;6.30;99.90
63260;DHT22;49390;51.380;0.098;2023-03-01T09:21:58;6.30;99.90
63260;DHT22;49390;51.380;0.098;2023-03-01T09:24:26;6.30;99.90
63260;DHT22;49390;51.380;0.098;2023-03-01T09:26:55;6.40;99.90
63260;DHT22;49390;51.380;0.098;2023-03-01T09:29:23;6.40;99.90
63260;DHT22;49390;51.380;0.098;2023-03-01T09:31:51;6.50;99.90
63260;DHT22;49390;51.380;0.098;2023-03-01T09:34:23;6.50;99.90
63260;DHT22;49390;51.380;0.098;2023-03-01T09:36:51;6.60;99.90
63260;DHT22;49390;51.380;0.098;2023-03-01T09:39:20;6.60;99.90
63260;DHT22;49390;51.380;0.098;2023-03-01T09:41:57;6.60;99.90
63260;DHT22;49390;51.380;0.098;2023-03-01T09:44:34;6.70;99.90
63260;DHT22;49390;51.380;0.098;2023-03-01T09:47:04;6.70;99.90
63260;DHT22;49390;51.380;0.098;2023-03-01T09:49:38;6.80;99.90
63260;DHT22;49390;51.380;0.098;2023-03-01T09:54:37;6.90;99.90
63260;DHT22;49390;51.380;0.098;2023-03-01T09:57:18;6.90;99.90
63260;DHT22;49390;51.380;0.098;2023-03-01T10:00:08;6.90;99.90
63260;DHT22;49390;51.380;0.098;2023-03-01T10:02:49;7.00;99.90
63260;DHT22;49390;51.380;0.098;2023-03-01T10:11:30;7.20;99.90
63260;DHT22;49390;51.380;0.098;2023-03-01T10:14:38;7.30;99.90
63260;DHT22;49390;51.380;0.098;2023-03-01T10:17:19;7.40;99.90
63260;DHT22;49390;51.380;0.098;2023-03-01T10:19:50;7.40;99.90
63260;DHT22;49390;51.380;0.098;2023-03-01T10:22:29;7.30;99.90
63260;DHT22;49390;51.380;0.098;2023-03-01T10:25:02;7.30;99.90
63260;DHT22;49390;51.380;0.098;2023-03-01T10:27:45;7.40;99.90
63260;DHT22;49390;51.380;0.098;2023-03-01T10:30:32;7.50;99.90
63260;DHT22;49390;51.380;0.098;2023-03-01T10:33:03;7.70;99.90
63260;DHT22;49390;51.380;0.098;2023-03-01T10:35:34;7.90;99.90
63260;DHT22;49390;51.380;0.098;2023-03-01T10:38:07;8.10;99.90
63260;DHT22;49390;51.380;0.098;2023-03-01T10:40:50;8.30;99.90
63260;DHT22;49390;51.380;0.098;2023-03-01T10:43:21;8.40;99.90
63260;DHT22;49390;51.380;0.098;2023-03-01T10:45:49;8.30;99.90
63260;DHT22;49390;51.380;0.098;2023-03-01T10:48:23;8.30;99.90
63260;DHT22;49390;51.380;0.098;2023-03-01T10:56:03;7.90;99.90
63260;DHT22;49390;51.380;0.098;2023-03-01T10:58:32;7.90;99.90
63260;DHT22;49390;51.380;0.098;2023-03-01T11:01:04;7.80;99.90
63260;DHT22;49390;51.380;0.098;2023-03-01T11:03:37;7.70;99.90
63260;DHT22;49390;51.380;0.098;2023-03-01T11:08:46;7.70;99.90
63260;DHT22;49390;51.380;0.098;2023-03-01T11:11:23;7.70;99.90
63260;DHT22;49390;51.380;0.098;2023-03-01T11:13:56;7.70;99.90
63260;DHT22;49390;51.380;0.098;2023-03-01T11:16:37;7.60;99.90
63260;DHT22;49390;51.380;0.098;2023-03-01T11:21:38;7.60;99.90
63260;DHT22;49390;51.380;0.098;2023-03-01T11:24:11;7.60;99.90
63260;DHT22;49390;51.380;0.098;2023-03-01T11:26:44;7.60;99.90
63260;DHT22;49390;51.380;0.098;2023-03-01T11:29:25;7.60;99.90
63260;DHT22;49390;51.380;0.098;2023-03-01T11:32:02;7.60;99.90
63260;DHT22;49390;51.380;0.098;2023-03-01T11:34:45;7.60;99.90
63260;DHT22;49390;51.380;0.098;2023-03-01T11:38:34;7.60;99.90
63260;DHT22;49390;51.380;0.098;2023-03-01T11:41:18;7.60;99.90
63260;DHT22;49390;51.380;0.098;2023-03-01T12:00:18;7.60;99.90
63260;DHT22;49390;51.380;0.098;2023-03-01T12:05:57;7.50;99.90
63260;DHT22;49390;51.380;0.098;2023-03-01T12:09:09;7.50;99.90
63260;DHT22;49390;51.380;0.098;2023-03-01T12:34:29;7.50;99.90
63260;DHT22;49390;51.380;0.098;2023-03-01T12:50:53;7.70;99.90
63260;DHT22;49390;51.380;0.098;2023-03-01T12:53:25;7.70;99.90
63260;DHT22;49390;51.380;0.098;2023-03-01T12:55:58;7.80;99.90
63260;DHT22;49390;51.380;0.098;2023-03-01T13:01:36;8.00;99.90
63260;DHT22;49390;51.380;0.098;2023-03-01T13:17:58;8.00;99.90
63260;DHT22;49390;51.380;0.098;2023-03-01T13:23:07;7.90;99.90
63260;DHT22;49390;51.380;0.098;2023-03-01T13:28:47;7.80;99.90
63260;DHT22;49390;51.380;0.098;2023-03-01T13:33:54;7.80;99.90
63260;DHT22;49390;51.380;0.098;2023-03-01T13:38:59;7.60;99.90
63260;DHT22;49390;51.380;0.098;2023-03-01T13:47:14;7.60;99.90
63260;DHT22;49390;51.380;0.098;2023-03-01T13:54:52;7.80;99.90
63260;DHT22;49390;51.380;0.098;2023-03-01T13:57:26;7.80;99.90
63260;DHT22;49390;51.380;0.098;2023-03-01T13:59:57;7.80;99.90
63260;DHT22;49390;51.380;0.098;2023-03-01T14:02:25;7.80;99.90
63260;DHT22;49390;51.380;0.098;2023-03-01T14:05:00;7.70;99.90
63260;DHT22;49390;51.380;0.098;2023-03-01T14:07:29;7.70;99.90
63260;DHT22;49390;51.380;0.098;2023-03-01T14:10:02;7.70;99.90
63260;DHT22;49390;51.380;0.098;2023-03-01T14:15:34;7.60;99.90
63260;DHT22;49390;51.380;0.098;2023-03-01T14:20:37;7.60;99.90
63260;DHT22;49390;51.380;0.098;2023-03-01T14:23:13;7.60;99.90
63260;DHT22;49390;51.380;0.098;2023-03-01T14:25:49;7.70;99.90
63260;DHT22;49390;51.380;0.098;2023-03-01T14:30:56;7.70;99.90
63260;DHT22;49390;51.380;0.098;2023-03-01T14:33:25;7.80;99.90
63260;DHT22;49390;51.380;0.098;2023-03-01T14:35:59;7.80;99.90
63260;DHT22;49390;51.380;0.098;2023-03-01T14:41:00;7.60;99.90
63260;DHT22;49390;51.380;0.098;2023-03-01T14:43:32;7.50;99.90
63260;DHT22;49390;51.380;0.098;2023-03-01T14:46:02;7.50;99.90
63260;DHT22;49390;51.380;0.098;2023-03-01T14:48:31;7.50;99.90
63260;DHT22;49390;51.380;0.098;2023-03-01T14:50:59;7.50;99.90
63260;DHT22;49390;51.380;0.098;2023-03-01T14:53:29;7.50;99.90
63260;DHT22;49390;51.380;0.098;2023-03-01T14:58:22;7.70;99.90
63260;DHT22;49390;51.380;0.098;2023-03-01T15:00:54;7.70;99.90
63260;DHT22;49390;51.380;0.098;2023-03-01T15:03:41;7.80;99.90
63260;DHT22;49390;51.380;0.098;2023-03-01T15:06:18;7.80;99.90
63260;DHT22;49390;51.380;0.098;2023-03-01T15:08:50;7.80;99.90
63260;DHT22;49390;51.380;0.098;2023-03-01T15:11:23;7.80;99.90
63260;DHT22;49390;51.380;0.098;2023-03-01T15:13:53;7.80;99.90
63260;DHT22;49390;51.380;0.098;2023-03-01T15:16:32;7.90;99.90
63260;DHT22;49390;51.380;0.098;2023-03-01T15:19:04;7.90;99.90
63260;DHT22;49390;51.380;0.098;2023-03-01T15:21:34;7.90;99.90
63260;DHT22;49390;51.380;0.098;2023-03-01T15:24:17;7.90;99.90
63260;DHT22;49390;51.380;0.098;2023-03-01T15:29:27;8.00;99.90
63260;DHT22;49390;51.380;0.098;2023-03-01T15:34:36;8.10;99.90
63260;DHT22;49390;51.380;0.098;2023-03-01T15:40:26;8.00;99.90
63260;DHT22;49390;51.380;0.098;2023-03-01T15:43:03;8.10;99.90
63260;DHT22;49390;51.380;0.098;2023-03-01T15:45:33;8.10;99.90
63260;DHT22;49390;51.380;0.098;2023-03-01T15:48:18;8.10;99.90
63260;DHT22;49390;51.380;0.098;2023-03-01T15:50:55;8.20;99.90
63260;DHT22;49390;51.380;0.098;2023-03-01T15:53:23;8.10;99.90
63260;DHT22;49390;51.380;0.098;2023-03-01T15:55:51;8.20;99.90
63260;DHT22;49390;51.380;0.098;2023-03-01T15:58:22;8.20;99.90
63260;DHT22;49390;51.380;0.098;2023-03-01T16:00:50;8.30;99.90
63260;DHT22;49390;51.380;0.098;2023-03-01T16:03:29;8.30;99.90
63260;DHT22;49390;51.380;0.098;2023-03-01T16:05:57;8.30;99.90
63260;DHT22;49390;51.380;0.098;2023-03-01T16:08:25;8.20;99.90
63260;DHT22;49390;51.380;0.098;2023-03-01T16:10:53;8.20;99.90
63260;DHT22;49390;51.380;0.098;2023-03-01T16:13:22;8.20;99.90
63260;DHT22;49390;51.380;0.098;2023-03-01T16:15:50;8.10;99.90
63260;DHT22;49390;51.380;0.098;2023-03-01T16:18:19;8.10;99.90
63260;DHT22;49390;51.380;0.098;2023-03-01T16:20:49;8.00;99.90
63260;DHT22;49390;51.380;0.098;2023-03-01T16:23:17;8.00;99.90
63260;DHT22;49390;51.380;0.098;2023-03-01T16:25:45;8.00;99.90
63260;DHT22;49390;51.380;0.098;2023-03-01T16:28:13;8.00;99.90
63260;DHT22;49390;51.380;0.098;2023-03-01T16:30:46;8.00;99.90
63260;DHT22;49390;51.380;0.098;2023-03-01T16:33:19;8.00;99.90
63260;DHT22;49390;51.380;0.098;2023-03-01T16:36:00;8.00;99.90
63260;DHT22;49390;51.380;0.098;2023-03-01T16:38:31;7.90;99.90
63260;DHT22;49390;51.380;0.098;2023-03-01T16:40:59;7.80;99.90
63260;DHT22;49390;51.380;0.098;2023-03-01T16:43:29;7.80;99.90
63260;DHT22;49390;51.380;0.098;2023-03-01T16:45:57;7.80;99.90
63260;DHT22;49390;51.380;0.098;2023-03-01T16:48:26;7.70;99.90
63260;DHT22;49390;51.380;0.098;2023-03-01T16:50:58;7.70;99.90
63260;DHT22;49390;51.380;0.098;2023-03-01T16:53:28;7.70;99.90
63260;DHT22;49390;51.380;0.098;2023-03-01T16:55:59;7.70;99.90
63260;DHT22;49390;51.380;0.098;2023-03-01T17:01:15;7.70;99.90
63260;DHT22;49390;51.380;0.098;2023-03-01T17:03:45;7.60;99.90
63260;DHT22;49390;51.380;0.098;2023-03-01T17:06:16;7.60;99.90
63260;DHT22;49390;51.380;0.098;2023-03-01T17:08:45;7.60;99.90
63260;DHT22;49390;51.380;0.098;2023-03-01T17:11:17;7.60;99.90
63260;DHT22;49390;51.380;0.098;2023-03-01T17:13:48;7.50;99.90
63260;DHT22;49390;51.380;0.098;2023-03-01T17:16:18;7.50;99.90
63260;DHT22;49390;51.380;0.098;2023-03-01T17:18:48;7.50;99.90
63260;DHT22;49390;51.380;0.098;2023-03-01T17:21:16;7.40;99.90
63260;DHT22;49390;51.380;0.098;2023-03-01T17:23:46;7.40;99.90
63260;DHT22;49390;51.380;0.098;2023-03-01T17:26:17;7.40;99.90
63260;DHT22;49390;51.380;0.098;2023-03-01T17:28:45;7.40;99.90
63260;DHT22;49390;51.380;0.098;2023-03-01T17:31:19;7.40;99.90
63260;DHT22;49390;51.380;0.098;2023-03-01T17:33:48;7.30;99.90
63260;DHT22;49390;51.380;0.098;2023-03-01T17:36:17;7.30;99.90
63260;DHT22;49390;51.380;0.098;2023-03-01T17:38:45;7.30;99.90
63260;DHT22;49390;51.380;0.098;2023-03-01T17:41:13;7.30;99.90
63260;DHT22;49390;51.380;0.098;2023-03-01T17:43:45;7.30;99.90
63260;DHT22;49390;51.380;0.098;2023-03-01T17:46:13;7.30;99.90
63260;DHT22;49390;51.380;0.098;2023-03-01T17:48:41;7.30;99.90
63260;DHT22;49390;51.380;0.098;2023-03-01T17:51:10;7.30;99.90
63260;DHT22;49390;51.380;0.098;2023-03-01T17:53:38;7.30;99.90
63260;DHT22;49390;51.380;0.098;2023-03-01T17:56:06;7.30;99.90
63260;DHT22;49390;51.380;0.098;2023-03-01T17:58:35;7.30;99.90
63260;DHT22;49390;51.380;0.098;2023-03-01T18:01:24;7.30;99.90
63260;DHT22;49390;51.380;0.098;2023-03-01T18:03:53;7.30;99.90
63260;DHT22;49390;51.380;0.098;2023-03-01T18:06:23;7.30;99.90
63260;DHT22;49390;51.380;0.098;2023-03-01T18:08:52;7.30;99.90
63260;DHT22;49390;51.380;0.098;2023-03-01T18:11:24;7.30;99.90
63260;DHT22;49390;51.380;0.098;2023-03-01T18:13:54;7.20;99.90
63260;DHT22;49390;51.380;0.098;2023-03-01T18:16:22;7.20;99.90
63260;DHT22;49390;51.380;0.098;2023-03-01T18:18:55;7.20;99.90
63260;DHT22;49390;51.380;0.098;2023-03-01T18:21:23;7.20;99.90
63260;DHT22;49390;51.380;0.098;2023-03-01T18:23:52;7.20;99.90
63260;DHT22;49390;51.380;0.098;2023-03-01T18:26:20;7.20;99.90
63260;DHT22;49390;51.380;0.098;2023-03-01T18:28:50;7.20;99.90
63260;DHT22;49390;51.380;0.098;2023-03-01T18:31:21;7.20;99.90
63260;DHT22;49390;51.380;0.098;2023-03-01T18:33:53;7.10;99.90
63260;DHT22;49390;51.380;0.098;2023-03-01T18:36:30;7.10;99.90
63260;DHT22;49390;51.380;0.098;2023-03-01T18:39:01;7.10;99.90
63260;DHT22;49390;51.380;0.098;2023-03-01T18:41:29;7.10;99.90